CYCK

Chatham Kent Airport

Chatham-Kent, Ontario, Canada
METAR CYCK 170754Z AUTO 05006KT 9SM SCT180 SCT200 M08/M10 A3017 RMK SLP230
Observed Flight Rules
Dec-17 @ 07:54 UTC (14 minutes ago) Visual Flight Rules
Wind Visibility Clouds
50° at 6 knots 9 miles
  • Scattered at 18,000' AGL
  • Scattered at 20,000' AGL
Temperatures Readings
Current -8°C / 18°F
Dewpoint -10°C / 14°F
Humidity 86%
Altimeter 30.17" Hg
Pressure 1023 hPa
Elevation 198
METAR CYCK 170754Z AUTO 05006KT 9SM SCT180 SCT200 M08/M10 A3017 RMK SLP230
Observed Flight Rules
Dec-17 @ 07:54 UTC
(14 minutes ago)
VFR
Wind Visibility
50° at 6 knots 9 miles
Clouds
  • Scattered at 18,000' AGL
  • Scattered at 20,000' AGL
Temperature Dewpoint
-8°C / 18°F -10°C / 14°F
Humidity Altimeter Pressure
86% 30.17" Hg 1023 hPa